sensor_id;sensor_type;location;lat;lon;timestamp;pressure;altitude;pressure_sealevel;temperature;humidity
20636;BME280;10477;43.198;27.916;2022-09-09T00:01:33;111148.91;;;-143.34;100.00
20636;BME280;10477;43.198;27.916;2022-09-09T00:04:25;111538.05;;;-143.34;100.00
20636;BME280;10477;43.198;27.916;2022-09-09T00:10:28;111667.77;;;-143.34;100.00
20636;BME280;10477;43.198;27.916;2022-09-09T00:19:07;110889.52;;;-143.34;100.00
20636;BME280;10477;43.198;27.916;2022-09-09T00:21:39;110111.42;;;-143.34;100.00
20636;BME280;10477;43.198;27.916;2022-09-09T00:24:32;108814.99;;;-143.34;100.00
20636;BME280;10477;43.198;27.916;2022-09-09T00:26:59;107907.78;;;-143.34;100.00
20636;BME280;10477;43.198;27.916;2022-09-09T00:29:28;106741.70;;;-143.34;100.00
20636;BME280;10477;43.198;27.916;2022-09-09T00:31:59;105835.03;;;-143.34;100.00
20636;BME280;10477;43.198;27.916;2022-09-09T00:34:28;103634.08;;;-143.34;100.00
20636;BME280;10477;43.198;27.916;2022-09-09T00:36:56;105058.06;;;-143.34;100.00
20636;BME280;10477;43.198;27.916;2022-09-09T00:39:37;106353.09;;;-143.34;100.00
20636;BME280;10477;43.198;27.916;2022-09-09T00:44:41;107519.05;;;-143.34;100.00
20636;BME280;10477;43.198;27.916;2022-09-09T00:47:43;108296.55;;;-143.34;100.00
20636;BME280;10477;43.198;27.916;2022-09-09T00:55:54;112056.97;;;-143.34;100.00
20636;BME280;10477;43.198;27.916;2022-09-09T00:58:21;112835.48;;;-143.34;100.00
20636;BME280;10477;43.198;27.916;2022-09-09T01:01:12;113095.03;;;-143.34;100.00
20636;BME280;10477;43.198;27.916;2022-09-09T01:03:56;113096.05;;;-143.34;100.00
20636;BME280;10477;43.198;27.916;2022-09-09T01:06:32;113096.05;;;-143.34;100.00
20636;BME280;10477;43.198;27.916;2022-09-09T01:09:21;113096.05;;;-143.34;100.00
20636;BME280;10477;43.198;27.916;2022-09-09T01:12:09;113096.05;;;-143.34;100.00
20636;BME280;10477;43.198;27.916;2022-09-09T01:14:47;113096.05;;;-143.34;100.00
20636;BME280;10477;43.198;27.916;2022-09-09T01:17:31;113096.05;;;-143.34;100.00
20636;BME280;10477;43.198;27.916;2022-09-09T01:20:05;112965.26;;;-143.34;100.00
20636;BME280;10477;43.198;27.916;2022-09-09T01:22:58;112316.45;;;-143.34;100.00
20636;BME280;10477;43.198;27.916;2022-09-09T01:28:26;113096.05;;;-143.34;100.00
20636;BME280;10477;43.198;27.916;2022-09-09T01:30:51;113096.05;;;-143.34;100.00
20636;BME280;10477;43.198;27.916;2022-09-09T01:33:18;113096.05;;;-143.34;100.00
20636;BME280;10477;43.198;27.916;2022-09-09T01:35:55;113096.05;;;-143.34;100.00
20636;BME280;10477;43.198;27.916;2022-09-09T01:38:24;113096.05;;;-143.34;100.00
20636;BME280;10477;43.198;27.916;2022-09-09T01:40:53;113096.05;;;-143.34;100.00
20636;BME280;10477;43.198;27.916;2022-09-09T01:43:22;113096.05;;;-143.34;100.00
20636;BME280;10477;43.198;27.916;2022-09-09T01:45:53;113096.05;;;-143.34;100.00
20636;BME280;10477;43.198;27.916;2022-09-09T01:48:22;113096.05;;;-143.34;100.00
20636;BME280;10477;43.198;27.916;2022-09-09T01:50:51;113096.05;;;-143.34;100.00
20636;BME280;10477;43.198;27.916;2022-09-09T01:53:20;113096.05;;;-143.34;100.00
20636;BME280;10477;43.198;27.916;2022-09-09T01:56:19;113096.05;;;-143.34;100.00
20636;BME280;10477;43.198;27.916;2022-09-09T02:06:57;113096.05;;;-143.34;100.00
20636;BME280;10477;43.198;27.916;2022-09-09T02:09:27;113096.05;;;-143.34;100.00
20636;BME280;10477;43.198;27.916;2022-09-09T02:12:08;113096.05;;;-143.34;100.00
20636;BME280;10477;43.198;27.916;2022-09-09T02:14:32;113096.05;;;-143.34;100.00
20636;BME280;10477;43.198;27.916;2022-09-09T02:17:09;113096.05;;;-143.34;100.00
20636;BME280;10477;43.198;27.916;2022-09-09T02:19:41;113096.05;;;-143.34;100.00
20636;BME280;10477;43.198;27.916;2022-09-09T02:22:08;113096.05;;;-143.34;100.00
20636;BME280;10477;43.198;27.916;2022-09-09T02:24:38;113096.05;;;-143.34;100.00
20636;BME280;10477;43.198;27.916;2022-09-09T02:27:08;113096.05;;;-143.34;100.00
20636;BME280;10477;43.198;27.916;2022-09-09T02:29:41;113096.05;;;-143.34;100.00
20636;BME280;10477;43.198;27.916;2022-09-09T02:32:21;113096.05;;;-143.34;100.00
20636;BME280;10477;43.198;27.916;2022-09-09T02:34:47;113096.05;;;-143.34;100.00
20636;BME280;10477;43.198;27.916;2022-09-09T02:37:17;113096.05;;;-143.34;100.00
20636;BME280;10477;43.198;27.916;2022-09-09T02:39:46;113096.05;;;-143.34;100.00
20636;BME280;10477;43.198;27.916;2022-09-09T02:42:15;113096.05;;;-143.34;100.00
20636;BME280;10477;43.198;27.916;2022-09-09T02:44:42;113096.05;;;-143.34;100.00
20636;BME280;10477;43.198;27.916;2022-09-09T02:47:26;113096.05;;;-143.34;100.00
20636;BME280;10477;43.198;27.916;2022-09-09T02:58:03;113096.05;;;-143.34;100.00
20636;BME280;10477;43.198;27.916;2022-09-09T03:00:33;113096.05;;;-143.34;100.00
20636;BME280;10477;43.198;27.916;2022-09-09T03:03:08;113096.05;;;-143.34;100.00
20636;BME280;10477;43.198;27.916;2022-09-09T03:05:37;113096.05;;;-143.34;100.00
20636;BME280;10477;43.198;27.916;2022-09-09T03:08:05;113096.05;;;-143.34;100.00
20636;BME280;10477;43.198;27.916;2022-09-09T03:10:33;113096.05;;;-143.34;100.00
20636;BME280;10477;43.198;27.916;2022-09-09T03:13:01;113096.05;;;-143.34;100.00
20636;BME280;10477;43.198;27.916;2022-09-09T03:15:33;113096.05;;;-143.34;100.00
20636;BME280;10477;43.198;27.916;2022-09-09T03:18:01;113096.05;;;-143.34;100.00
20636;BME280;10477;43.198;27.916;2022-09-09T03:20:30;113096.05;;;-143.34;100.00
20636;BME280;10477;43.198;27.916;2022-09-09T03:22:59;113096.05;;;-143.34;100.00
20636;BME280;10477;43.198;27.916;2022-09-09T03:25:28;113096.05;;;-143.34;100.00
20636;BME280;10477;43.198;27.916;2022-09-09T03:27:56;113096.05;;;-143.34;100.00
20636;BME280;10477;43.198;27.916;2022-09-09T03:30:26;113096.05;;;-143.34;100.00
20636;BME280;10477;43.198;27.916;2022-09-09T03:32:54;113096.05;;;-143.34;100.00
20636;BME280;10477;43.198;27.916;2022-09-09T03:35:22;113096.05;;;-143.34;100.00
20636;BME280;10477;43.198;27.916;2022-09-09T03:37:50;113096.05;;;-143.34;100.00
20636;BME280;10477;43.198;27.916;2022-09-09T03:40:17;113096.05;;;-143.34;100.00
20636;BME280;10477;43.198;27.916;2022-09-09T03:42:46;113096.05;;;-143.34;100.00
20636;BME280;10477;43.198;27.916;2022-09-09T03:45:15;113096.05;;;-143.34;100.00
20636;BME280;10477;43.198;27.916;2022-09-09T03:47:43;113096.05;;;-143.34;100.00
20636;BME280;10477;43.198;27.916;2022-09-09T03:50:11;113096.05;;;-143.34;100.00
20636;BME280;10477;43.198;27.916;2022-09-09T03:52:40;113096.05;;;-143.34;100.00
20636;BME280;10477;43.198;27.916;2022-09-09T03:55:09;113096.05;;;-143.34;100.00
20636;BME280;10477;43.198;27.916;2022-09-09T03:57:37;113096.05;;;-143.34;100.00
20636;BME280;10477;43.198;27.916;2022-09-09T04:00:07;113096.05;;;-143.34;100.00
20636;BME280;10477;43.198;27.916;2022-09-09T04:02:35;113096.05;;;-143.34;100.00
20636;BME280;10477;43.198;27.916;2022-09-09T04:05:03;113096.05;;;-143.34;100.00
20636;BME280;10477;43.198;27.916;2022-09-09T04:07:32;113096.05;;;-143.34;100.00
20636;BME280;10477;43.198;27.916;2022-09-09T04:10:00;113095.03;;;-143.34;100.00
20636;BME280;10477;43.198;27.916;2022-09-09T04:12:29;112446.20;;;-143.34;100.00
20636;BME280;10477;43.198;27.916;2022-09-09T04:14:57;111667.77;;;-143.34;100.00
20636;BME280;10477;43.198;27.916;2022-09-09T04:17:24;110889.52;;;-143.34;100.00
20636;BME280;10477;43.198;27.916;2022-09-09T04:19:52;110630.13;;;-143.34;100.00
20636;BME280;10477;43.198;27.916;2022-09-09T04:22:20;110500.45;;;-143.34;100.00
20636;BME280;10477;43.198;27.916;2022-09-09T04:24:48;111019.21;;;-143.34;100.00
20636;BME280;10477;43.198;27.916;2022-09-09T04:27:16;110759.82;;;-143.34;100.00
20636;BME280;10477;43.198;27.916;2022-09-09T04:29:44;111019.21;;;-143.34;100.00
20636;BME280;10477;43.198;27.916;2022-09-09T04:32:12;110759.82;;;-143.34;100.00
20636;BME280;10477;43.198;27.916;2022-09-09T04:34:40;110241.09;;;-143.34;100.00
20636;BME280;10477;43.198;27.916;2022-09-09T04:37:07;110111.42;;;-143.34;100.00
20636;BME280;10477;43.198;27.916;2022-09-09T04:39:36;109852.09;;;-143.34;100.00
20636;BME280;10477;43.198;27.916;2022-09-09T04:42:04;109463.14;;;-143.34;100.00
20636;BME280;10477;43.198;27.916;2022-09-09T04:44:32;108814.99;;;-143.34;100.00
20636;BME280;10477;43.198;27.916;2022-09-09T04:46:59;108426.16;;;-143.34;100.00
20636;BME280;10477;43.198;27.916;2022-09-09T04:49:27;108814.99;;;-143.34;100.00
20636;BME280;10477;43.198;27.916;2022-09-09T04:51:56;108685.38;;;-143.34;100.00
20636;BME280;10477;43.198;27.916;2022-09-09T04:54:24;107648.61;;;-143.34;100.00
20636;BME280;10477;43.198;27.916;2022-09-09T04:56:51;106741.70;;;-143.34;100.00
20636;BME280;10477;43.198;27.916;2022-09-09T04:59:19;105576.02;;;-143.34;100.00
20636;BME280;10477;43.198;27.916;2022-09-09T05:01:47;104151.83;;;-143.34;100.00
20636;BME280;10477;43.198;27.916;2022-09-09T05:04:15;102857.61;;;-143.34;100.00
20636;BME280;10477;43.198;27.916;2022-09-09T05:06:43;101434.52;;;-143.34;100.00
20636;BME280;10477;43.198;27.916;2022-09-09T05:09:10;99624.16;;;-143.34;100.00
20636;BME280;10477;43.198;27.916;2022-09-09T05:11:38;97943.95;;;-143.34;100.00
20636;BME280;10477;43.198;27.916;2022-09-09T05:14:06;96393.72;;;-143.34;100.00
20636;BME280;10477;43.198;27.916;2022-09-09T05:16:35;94844.17;;;-143.34;100.00
20636;BME280;10477;43.198;27.916;2022-09-09T05:19:03;92134.13;;;-143.34;100.00
20636;BME280;10477;43.198;27.916;2022-09-09T05:21:30;89039.53;;;-143.34;100.00
20636;BME280;10477;43.198;27.916;2022-09-09T05:24:00;86978.01;;;-143.34;100.00
20636;BME280;10477;43.198;27.916;2022-09-09T05:26:27;84531.55;;;-143.34;100.00
20636;BME280;10477;43.198;27.916;2022-09-09T05:28:56;82858.65;;;-143.34;100.00
20636;BME280;10477;43.198;27.916;2022-09-09T05:31:25;79643.82;;;-143.34;100.00
20636;BME280;10477;43.198;27.916;2022-09-09T05:33:54;78358.73;;;-143.34;100.00
20636;BME280;10477;43.198;27.916;2022-09-09T05:36:23;77459.45;;;-143.34;100.00
20636;BME280;10477;43.198;27.916;2022-09-09T05:38:51;75404.84;;;-143.34;100.00
20636;BME280;10477;43.198;27.916;2022-09-09T05:41:20;73479.77;;;-143.34;100.00
20636;BME280;10477;43.198;27.916;2022-09-09T05:43:49;72838.32;;;-143.34;100.00
20636;BME280;10477;43.198;27.916;2022-09-09T05:46:22;72068.73;;;-143.34;100.00
20636;BME280;10477;43.198;27.916;2022-09-09T05:48:52;73094.89;;;-143.34;100.00
20636;BME280;10477;43.198;27.916;2022-09-09T05:51:22;76432.00;;;-143.34;100.00
20636;BME280;10477;43.198;27.916;2022-09-09T05:53:51;75918.39;;;-143.34;100.00
20636;BME280;10477;43.198;27.916;2022-09-09T05:56:24;70145.53;;;-143.34;100.00
20636;BME280;10477;43.198;27.916;2022-09-09T05:58:55;69376.56;;;-143.34;100.00
20636;BME280;10477;43.198;27.916;2022-09-09T06:01:28;64254.46;;;-143.34;100.00
20636;BME280;10477;43.198;27.916;2022-09-09T06:03:58;50845.52;;;-143.34;100.00
20636;BME280;10477;43.198;27.916;2022-09-09T06:06:30;44606.39;;;-143.34;100.00
20636;BME280;10477;43.198;27.916;2022-09-09T06:08:57;36728.21;;;-143.34;100.00
20636;BME280;10477;43.198;27.916;2022-09-09T06:11:27;47279.99;;;-143.34;100.00
20636;BME280;10477;43.198;27.916;2022-09-09T06:13:58;52247.78;;;-143.34;100.00
20636;BME280;10477;43.198;27.916;2022-09-09T06:16:28;53012.89;;;-143.34;100.00
20636;BME280;10477;43.198;27.916;2022-09-09T06:18:57;60929.21;;;-143.34;100.00
20636;BME280;10477;43.198;27.916;2022-09-09T06:21:30;60673.56;;;-143.34;100.00
20636;BME280;10477;43.198;27.916;2022-09-09T06:23:59;68992.13;;;-143.34;100.00
20636;BME280;10477;43.198;27.916;2022-09-09T06:26:33;66814.55;;;-143.34;100.00
20636;BME280;10477;43.198;27.916;2022-09-09T06:28:58;66814.55;;;-143.34;100.00
20636;BME280;10477;43.198;27.916;2022-09-09T06:31:28;69761.02;;;-143.34;100.00
20636;BME280;10477;43.198;27.916;2022-09-09T06:34:00;70786.48;;;-143.34;100.00
20636;BME280;10477;43.198;27.916;2022-09-09T06:36:32;69761.02;;;-143.34;100.00
20636;BME280;10477;43.198;27.916;2022-09-09T06:39:00;68735.88;;;-143.34;100.00
20636;BME280;10477;43.198;27.916;2022-09-09T06:41:30;66558.45;;;-143.34;100.00
20636;BME280;10477;43.198;27.916;2022-09-09T06:43:59;67326.80;;;-143.34;100.00
20636;BME280;10477;43.198;27.916;2022-09-09T06:46:29;67454.87;;;-143.34;100.00
20636;BME280;10477;43.198;27.916;2022-09-09T06:48:59;66302.38;;;-143.34;100.00
20636;BME280;10477;43.198;27.916;2022-09-09T06:51:30;69248.41;;;-143.34;100.00
20636;BME280;10477;43.198;27.916;2022-09-09T06:53:59;67711.03;;;-143.34;100.00
20636;BME280;10477;43.198;27.916;2022-09-09T06:56:34;63614.73;;;-143.34;100.00
20636;BME280;10477;43.198;27.916;2022-09-09T06:59:04;67070.66;;;-143.34;100.00
20636;BME280;10477;43.198;27.916;2022-09-09T07:01:34;67326.80;;;-143.34;100.00
20636;BME280;10477;43.198;27.916;2022-09-09T07:04:04;67839.12;;;-143.34;100.00
20636;BME280;10477;43.198;27.916;2022-09-09T07:06:36;66558.45;;;-143.34;100.00
20636;BME280;10477;43.198;27.916;2022-09-09T07:09:07;71042.89;;;-143.34;100.00
20636;BME280;10477;43.198;27.916;2022-09-09T07:11:48;69120.27;;;-143.34;100.00
20636;BME280;10477;43.198;27.916;2022-09-09T07:14:12;67711.03;;;-143.34;100.00
20636;BME280;10477;43.198;27.916;2022-09-09T07:16:43;67839.12;;;-143.34;100.00
20636;BME280;10477;43.198;27.916;2022-09-09T07:19:12;68607.75;;;-143.34;100.00
20636;BME280;10477;43.198;27.916;2022-09-09T07:21:41;66046.31;;;-143.34;100.00
20636;BME280;10477;43.198;27.916;2022-09-09T07:24:10;66558.45;;;-143.34;100.00
20636;BME280;10477;43.198;27.916;2022-09-09T07:26:41;65406.26;;;-143.34;100.00
20636;BME280;10477;43.198;27.916;2022-09-09T07:29:09;64638.34;;;-143.34;100.00
20636;BME280;10477;43.198;27.916;2022-09-09T07:31:39;66430.41;;;-143.34;100.00
20636;BME280;10477;43.198;27.916;2022-09-09T07:34:07;68735.88;;;-143.34;100.00
20636;BME280;10477;43.198;27.916;2022-09-09T07:36:39;69632.86;;;-143.34;100.00
20636;BME280;10477;43.198;27.916;2022-09-09T07:39:11;65662.27;;;-143.34;100.00
20636;BME280;10477;43.198;27.916;2022-09-09T07:41:45;59395.58;;;-143.34;100.00
20636;BME280;10477;43.198;27.916;2022-09-09T07:44:19;50590.63;;;-143.34;100.00
20636;BME280;10477;43.198;27.916;2022-09-09T07:46:51;51227.89;;;-143.34;100.00
20636;BME280;10477;43.198;27.916;2022-09-09T07:49:18;52247.78;;;-143.34;100.00
20636;BME280;10477;43.198;27.916;2022-09-09T07:51:48;46769.77;;;-143.34;100.00
20636;BME280;10477;43.198;27.916;2022-09-09T07:54:17;43588.82;;;-143.34;100.00
20636;BME280;10477;43.198;27.916;2022-09-09T07:56:54;23049.03;;;-143.34;100.00
20636;BME280;10477;43.198;27.916;2022-09-09T07:59:21;22796.24;;;-143.34;100.00
20636;BME280;10477;43.198;27.916;2022-09-09T08:01:51;13456.54;;;-143.34;100.00
20636;BME280;10477;43.198;27.916;2022-09-09T08:04:23;-17276.47;;;-143.34;100.00
20636;BME280;10477;43.198;27.916;2022-09-09T08:06:57;-17276.47;;;-143.34;100.00
20636;BME280;10477;43.198;27.916;2022-09-09T08:09:27;-17276.47;;;-143.34;100.00
20636;BME280;10477;43.198;27.916;2022-09-09T08:12:00;-17276.47;;;-143.34;100.00
20636;BME280;10477;43.198;27.916;2022-09-09T08:14:28;-17276.47;;;-143.34;100.00
20636;BME280;10477;43.198;27.916;2022-09-09T08:16:56;-17276.47;;;-143.34;100.00
20636;BME280;10477;43.198;27.916;2022-09-09T08:19:25;-17276.47;;;-143.34;100.00
20636;BME280;10477;43.198;27.916;2022-09-09T08:21:54;-17276.47;;;-143.34;100.00
20636;BME280;10477;43.198;27.916;2022-09-09T08:24:22;-17276.47;;;-143.34;100.00
20636;BME280;10477;43.198;27.916;2022-09-09T08:26:50;-17276.47;;;-143.34;100.00
20636;BME280;10477;43.198;27.916;2022-09-09T08:29:19;-17276.47;;;-143.34;100.00
20636;BME280;10477;43.198;27.916;2022-09-09T08:31:55;-17276.47;;;-143.34;100.00
20636;BME280;10477;43.198;27.916;2022-09-09T08:34:24;-17276.47;;;-143.34;100.00
20636;BME280;10477;43.198;27.916;2022-09-09T08:36:54;-17276.47;;;-143.34;100.00
20636;BME280;10477;43.198;27.916;2022-09-09T08:39:23;-17276.47;;;-143.34;100.00
20636;BME280;10477;43.198;27.916;2022-09-09T08:47:54;8922.41;;;-143.34;100.00
20636;BME280;10477;43.198;27.916;2022-09-09T08:50:35;7035.03;;;-143.34;100.00
20636;BME280;10477;43.198;27.916;2022-09-09T08:55:35;-1382.07;;;-143.34;100.00
20636;BME280;10477;43.198;27.916;2022-09-09T08:58:15;-1382.07;;;-143.34;100.00
20636;BME280;10477;43.198;27.916;2022-09-09T09:01:09;16104.32;;;-143.34;100.00
20636;BME280;10477;43.198;27.916;2022-09-09T09:09:11;13960.71;;;-143.34;100.00
20636;BME280;10477;43.198;27.916;2022-09-09T09:11:55;13456.54;;;-143.34;100.00
20636;BME280;10477;43.198;27.916;2022-09-09T09:14:28;11440.60;;;-143.34;100.00
20636;BME280;10477;43.198;27.916;2022-09-09T09:17:00;6280.38;;;-143.34;100.00
20636;BME280;10477;43.198;27.916;2022-09-09T09:19:38;1881.70;;;-143.34;100.00
20636;BME280;10477;43.198;27.916;2022-09-09T09:27:59;8544.85;;;-143.34;100.00
20636;BME280;10477;43.198;27.916;2022-09-09T09:30:35;15978.18;;;-143.34;100.00
20636;BME280;10477;43.198;27.916;2022-09-09T09:33:08;22290.72;;;-143.34;100.00
20636;BME280;10477;43.198;27.916;2022-09-09T09:35:34;-3388.94;;;-143.34;100.00
20636;BME280;10477;43.198;27.916;2022-09-09T09:38:12;3263.51;;;-143.34;100.00
20636;BME280;10477;43.198;27.916;2022-09-09T09:40:33;-3263.55;;;-143.34;100.00
20636;BME280;10477;43.198;27.916;2022-09-09T09:43:03;9174.14;;;-143.34;100.00
20636;BME280;10477;43.198;27.916;2022-09-09T09:45:42;2384.11;;;-143.34;100.00
20636;BME280;10477;43.198;27.916;2022-09-09T09:48:19;7915.67;;;-143.34;100.00
20636;BME280;10477;43.198;27.916;2022-09-09T09:50:58;8670.70;;;-143.34;100.00
20636;BME280;10477;43.198;27.916;2022-09-09T09:53:30;-378.18;;;-143.34;100.00
20636;BME280;10477;43.198;27.916;2022-09-09T09:58:31;751.57;;;-143.34;100.00
20636;BME280;10477;43.198;27.916;2022-09-09T10:01:00;3137.87;;;-143.34;100.00
20636;BME280;10477;43.198;27.916;2022-09-09T10:03:33;-8400.71;;;-143.34;100.00
20636;BME280;10477;43.198;27.916;2022-09-09T10:06:03;4645.90;;;-143.34;100.00
20636;BME280;10477;43.198;27.916;2022-09-09T10:08:34;2760.97;;;-143.34;100.00
20636;BME280;10477;43.198;27.916;2022-09-09T10:11:38;10936.81;;;-143.34;100.00
20636;BME280;10477;43.198;27.916;2022-09-09T10:14:12;10559.02;;;-143.34;100.00
20636;BME280;10477;43.198;27.916;2022-09-09T10:19:50;22922.63;;;-143.34;100.00
20636;BME280;10477;43.198;27.916;2022-09-09T10:22:28;19890.54;;;-143.34;100.00
20636;BME280;10477;43.198;27.916;2022-09-09T10:33:50;19132.95;;;-143.34;100.00
20636;BME280;10477;43.198;27.916;2022-09-09T10:36:24;17492.10;;;-143.34;100.00
20636;BME280;10477;43.198;27.916;2022-09-09T10:39:05;14591.04;;;-143.34;100.00
20636;BME280;10477;43.198;27.916;2022-09-09T10:41:53;10684.94;;;-143.34;100.00
20636;BME280;10477;43.198;27.916;2022-09-09T10:44:28;13204.48;;;-143.34;100.00
20636;BME280;10477;43.198;27.916;2022-09-09T10:47:22;20395.70;;;-143.34;100.00
20636;BME280;10477;43.198;27.916;2022-09-09T10:55:26;13960.71;;;-143.34;100.00
20636;BME280;10477;43.198;27.916;2022-09-09T10:57:56;17618.29;;;-143.34;100.00
20636;BME280;10477;43.198;27.916;2022-09-09T11:00:46;4017.47;;;-143.34;100.00
20636;BME280;10477;43.198;27.916;2022-09-09T11:03:23;5148.73;;;-143.34;100.00
20636;BME280;10477;43.198;27.916;2022-09-09T11:06:09;4394.51;;;-143.34;100.00
20636;BME280;10477;43.198;27.916;2022-09-09T11:08:38;500.48;;;-143.34;100.00
20636;BME280;10477;43.198;27.916;2022-09-09T11:11:42;6154.62;;;-143.34;100.00
20636;BME280;10477;43.198;27.916;2022-09-09T11:16:57;7915.67;;;-143.34;100.00
20636;BME280;10477;43.198;27.916;2022-09-09T11:19:33;-12404.61;;;-143.34;100.00
20636;BME280;10477;43.198;27.916;2022-09-09T11:21:57;-17276.47;;;-143.34;100.00
20636;BME280;10477;43.198;27.916;2022-09-09T11:24:43;-17276.47;;;-143.34;100.00
20636;BME280;10477;43.198;27.916;2022-09-09T11:27:15;-17276.47;;;-143.34;100.00
20636;BME280;10477;43.198;27.916;2022-09-09T11:30:13;-17276.47;;;-143.34;100.00
20636;BME280;10477;43.198;27.916;2022-09-09T11:32:38;-16462.11;;;-143.34;100.00
20636;BME280;10477;43.198;27.916;2022-09-09T11:40:41;12322.42;;;-143.34;100.00
20636;BME280;10477;43.198;27.916;2022-09-09T11:43:15;17870.68;;;-143.34;100.00
20636;BME280;10477;43.198;27.916;2022-09-09T11:45:51;22669.85;;;-143.34;100.00
20636;BME280;10477;43.198;27.916;2022-09-09T11:51:02;28741.88;;;-143.34;100.00
20636;BME280;10477;43.198;27.916;2022-09-09T11:53:30;29121.75;;;-143.34;100.00
20636;BME280;10477;43.198;27.916;2022-09-09T11:56:03;31275.15;;;-143.34;100.00
20636;BME280;10477;43.198;27.916;2022-09-09T11:58:40;27475.96;;;-143.34;100.00
20636;BME280;10477;43.198;27.916;2022-09-09T12:04:13;15221.49;;;-143.34;100.00
20636;BME280;10477;43.198;27.916;2022-09-09T12:06:30;19511.72;;;-143.34;100.00
20636;BME280;10477;43.198;27.916;2022-09-09T12:11:38;28108.86;;;-143.34;100.00
20636;BME280;10477;43.198;27.916;2022-09-09T12:14:18;30134.94;;;-143.34;100.00
20636;BME280;10477;43.198;27.916;2022-09-09T12:16:37;25072.04;;;-143.34;100.00
20636;BME280;10477;43.198;27.916;2022-09-09T12:19:20;1128.23;;;-143.34;100.00
20636;BME280;10477;43.198;27.916;2022-09-09T12:24:49;-4141.20;;;-143.34;100.00
20636;BME280;10477;43.198;27.916;2022-09-09T12:27:22;-2511.09;;;-143.34;100.00
20636;BME280;10477;43.198;27.916;2022-09-09T12:29:55;3137.87;;;-143.34;100.00
20636;BME280;10477;43.198;27.916;2022-09-09T12:32:24;7286.62;;;-143.34;100.00
20636;BME280;10477;43.198;27.916;2022-09-09T12:37:35;10307.18;;;-143.34;100.00
20636;BME280;10477;43.198;27.916;2022-09-09T12:40:23;13456.54;;;-143.34;100.00
20636;BME280;10477;43.198;27.916;2022-09-09T12:42:52;2007.30;;;-143.34;100.00
20636;BME280;10477;43.198;27.916;2022-09-09T12:45:24;877.12;;;-143.34;100.00
20636;BME280;10477;43.198;27.916;2022-09-09T12:47:57;-629.18;;;-143.34;100.00
20636;BME280;10477;43.198;27.916;2022-09-09T12:50:43;-3890.46;;;-143.34;100.00
20636;BME280;10477;43.198;27.916;2022-09-09T12:53:12;-2260.23;;;-143.34;100.00
20636;BME280;10477;43.198;27.916;2022-09-09T12:55:48;-6647.47;;;-143.34;100.00
20636;BME280;10477;43.198;27.916;2022-09-09T12:58:13;626.02;;;-143.34;100.00
20636;BME280;10477;43.198;27.916;2022-09-09T13:00:50;4897.30;;;-143.34;100.00
20636;BME280;10477;43.198;27.916;2022-09-09T13:03:25;1881.70;;;-143.34;100.00
20636;BME280;10477;43.198;27.916;2022-09-09T13:05:54;-127.16;;;-143.34;100.00
20636;BME280;10477;43.198;27.916;2022-09-09T13:08:24;11692.52;;;-143.34;100.00
20636;BME280;10477;43.198;27.916;2022-09-09T13:11:01;10936.81;;;-143.34;100.00
20636;BME280;10477;43.198;27.916;2022-09-09T13:13:37;1128.23;;;-143.34;100.00
20636;BME280;10477;43.198;27.916;2022-09-09T13:16:17;-8651.11;;;-143.34;100.00
20636;BME280;10477;43.198;27.916;2022-09-09T13:18:40;-1633.00;;;-143.34;100.00
20636;BME280;10477;43.198;27.916;2022-09-09T13:21:08;-10278.15;;;-143.34;100.00
20636;BME280;10477;43.198;27.916;2022-09-09T13:23:37;-5770.49;;;-143.34;100.00
20636;BME280;10477;43.198;27.916;2022-09-09T13:26:20;1630.53;;;-143.34;100.00
20636;BME280;10477;43.198;27.916;2022-09-09T13:28:48;5777.37;;;-143.34;100.00
20636;BME280;10477;43.198;27.916;2022-09-09T13:31:29;13960.71;;;-143.34;100.00
20636;BME280;10477;43.198;27.916;2022-09-09T13:33:59;-11654.25;;;-143.34;100.00
20636;BME280;10477;43.198;27.916;2022-09-09T13:36:34;626.02;;;-143.34;100.00
20636;BME280;10477;43.198;27.916;2022-09-09T13:39:03;-880.17;;;-143.34;100.00
20636;BME280;10477;43.198;27.916;2022-09-09T13:41:36;7160.82;;;-143.34;100.00
20636;BME280;10477;43.198;27.916;2022-09-09T13:44:05;20269.40;;;-143.34;100.00
20636;BME280;10477;43.198;27.916;2022-09-09T13:46:39;18123.10;;;-143.34;100.00
20636;BME280;10477;43.198;27.916;2022-09-09T13:51:43;28615.26;;;-143.34;100.00
20636;BME280;10477;43.198;27.916;2022-09-09T13:54:14;36728.21;;;-143.34;100.00
20636;BME280;10477;43.198;27.916;2022-09-09T13:56:43;36093.68;;;-143.34;100.00
20636;BME280;10477;43.198;27.916;2022-09-09T13:59:16;36093.68;;;-143.34;100.00
20636;BME280;10477;43.198;27.916;2022-09-09T14:01:47;37489.80;;;-143.34;100.00
20636;BME280;10477;43.198;27.916;2022-09-09T14:04:16;35713.01;;;-143.34;100.00
20636;BME280;10477;43.198;27.916;2022-09-09T14:06:44;44351.97;;;-143.34;100.00
20636;BME280;10477;43.198;27.916;2022-09-09T14:09:14;44224.77;;;-143.34;100.00
20636;BME280;10477;43.198;27.916;2022-09-09T14:11:43;50335.75;;;-143.34;100.00
20636;BME280;10477;43.198;27.916;2022-09-09T14:14:13;51355.36;;;-143.34;100.00
20636;BME280;10477;43.198;27.916;2022-09-09T14:16:41;59523.36;;;-143.34;100.00
20636;BME280;10477;43.198;27.916;2022-09-09T14:19:09;53395.52;;;-143.34;100.00
20636;BME280;10477;43.198;27.916;2022-09-09T14:21:37;51227.89;;;-143.34;100.00
20636;BME280;10477;43.198;27.916;2022-09-09T14:24:05;51737.80;;;-143.34;100.00